EW7469 Weather Reports


Display with metric or nautical units.
time (UTC)temp
F
wind
direction
speed
MPH
gust
MPH
rain 1hr
in
rain 24hr
in
rain mn
in
humidity
%
barometer
mb
20260502130439 75 194 3.0 7.0 0.00 0.00 0.00 78 1010.6
20260502123501 72 213 4.0 9.0 0.00 0.00 0.00 88 1010.7
20260502122956 72 195 4.0 7.0 0.00 0.00 0.00 90 1010.6
20260502122432 71 216 3.0 7.0 0.00 0.00 0.00 91 1010.6
20260502121945 71 189 2.0 5.0 0.00 0.00 0.00 93 1010.6
20260502121441 71 162 2.0 5.0 0.00 0.00 0.00 95 1010.6
20260502120938 70 214 2.0 5.0 0.00 0.00 0.00 96 1010.6
20260502120445 70 238 1.0 5.0 0.00 0.00 0.00 97 1010.6
20260501224935 83 142 2.0 9.0 0.00 0.00 0.00 61 1008.7
20260501224440 83 152 2.0 9.0 0.00 0.00 0.00 62 1008.8
20260501223955 83 127 2.0 7.0 0.00 0.00 0.00 62 1008.8
20260501223441 83 188 2.0 7.0 0.00 0.00 0.00 62 1008.8
20260501222934 83 87 1.0 4.0 0.00 0.00 0.00 61 1008.7
20260501222444 84 105 2.0 5.0 0.00 0.00 0.00 61 1008.7
20260501221940 84 136 2.0 5.0 0.00 0.00 0.00 60 1008.7
20260501221455 84 155 2.0 5.0 0.00 0.00 0.00 60 1008.7
20260501220943 84 108 1.0 10.0 0.00 0.00 0.00 58 1008.7
20260501220459 85 122 4.0 10.0 0.00 0.00 0.00 57 1008.7
20260501215943 85 100 1.0 9.0 0.00 0.00 0.00 57 1008.6
20260501215440 86 114 4.0 9.0 0.00 0.00 0.00 56 1008.6
20260501214935 86 25 3.0 9.0 0.00 0.00 0.00 56 1008.6
20260501214431 86 46 1.0 9.0 0.00 0.00 0.00 55 1008.7
20260501214004 86 147 2.0 9.0 0.00 0.00 0.00 55 1008.7
20260501213457 87 134 2.0 8.0 0.00 0.00 0.00 54 1008.7
20260501212932 87 144 3.0 7.0 0.00 0.00 0.00 54 1008.9
20260501212441 88 185 3.0 9.0 0.00 0.00 0.00 51 1008.9
20260501211937 88 130 3.0 9.0 0.00 0.00 0.00 53 1008.9
20260501211433 89 99 3.0 7.0 0.00 0.00 0.00 50 1009.0
20260501210931 90 145 2.0 9.0 0.00 0.00 0.00 50 1009.0
20260501210440 90 67 2.0 9.0 0.00 0.00 0.00 50 1009.0
20260501205935 90 147 2.0 6.0 0.00 0.00 0.00 48 1009.1
20260501205439 90 121 1.0 6.0 0.00 0.00 0.00 48 1009.1
20260501204936 90 68 1.0 7.0 0.00 0.00 0.00 49 1009.1
20260501204444 90 72 2.0 7.0 0.00 0.00 0.00 49 1009.3
20260501203941 90 58 3.0 7.0 0.00 0.00 0.00 48 1009.3
20260501203437 90 263 3.0 7.0 0.00 0.00 0.00 48 1009.3
20260501202935 90 97 1.0 6.0 0.00 0.00 0.00 49 1009.6
20260501202443 90 65 2.0 11.0 0.00 0.00 0.00 50 1009.6
20260501201939 90 114 1.0 11.0 0.00 0.00 0.00 50 1009.6
20260501201437 90 106 1.0 11.0 0.00 0.00 0.00 50 1009.9
20260501200932 90 129 2.0 7.0 0.00 0.00 0.00 51 1009.9
20260501200445 90 75 2.0 10.0 0.00 0.00 0.00 48 1009.9
20260501195938 89 84 2.0 10.0 0.00 0.00 0.00 51 1010.1
20260501195435 90 105 3.0 9.0 0.00 0.00 0.00 50 1010.1
20260501194932 89 127 2.0 9.0 0.00 0.00 0.00 48 1010.1
20260501194429 89 73 2.0 9.0 0.00 0.00 0.00 50 1010.2
20260501193944 90 57 2.0 7.0 0.00 0.00 0.00 48 1010.2
20260501193442 91 126 1.0 7.0 0.00 0.00 0.00 47 1010.2
20260501192936 90 117 1.0 6.0 0.00 0.00 0.00 48 1010.3
20260501192505 90 70 2.0 5.0 0.00 0.00 0.00 50 1010.3
20260501191938 89 84 1.0 6.0 0.00 0.00 0.00 52 1010.3
20260501191435 88 108 2.0 7.0 0.00 0.00 0.00 54 1010.6
20260501190930 87 41 2.0 7.0 0.00 0.00 0.00 55 1010.6
20260501190442 87 48 3.0 6.0 0.00 0.00 0.00 55 1010.6
20260501185935 87 49 1.0 6.0 0.00 0.00 0.00 54 1010.8
20260501185433 87 94 2.0 6.0 0.00 0.00 0.00 53 1010.8
20260501184940 88 72 2.0 6.0 0.00 0.00 0.00 53 1010.8
20260501184454 88 111 2.0 10.0 0.00 0.00 0.00 51 1010.9
20260501183949 89 100 2.0 10.0 0.00 0.00 0.00 50 1010.9
20260501183445 90 25 1.0 7.0 0.00 0.00 0.00 50 1010.9
20260501183002 90 101 2.0 7.0 0.00 0.00 0.00 48 1011.1
20260501182436 90 37 2.0 11.0 0.00 0.00 0.00 51 1011.1
20260501182005 90 40 1.0 11.0 0.00 0.00 0.00 50 1011.1
20260501181437 90 96 2.0 7.0 0.00 0.00 0.00 49 1011.2
20260501180934 90 56 1.0 9.0 0.00 0.00 0.00 50 1011.2
20260501180503 90 118 1.0 9.0 0.00 0.00 0.00 52 1011.2
20260501175956 90 135 0.0 6.0 0.00 0.00 0.00 50 1011.3
20260501175432 90 60 1.0 9.0 0.00 0.00 0.00 48 1011.3
20260501174948 90 79 2.0 11.0 0.00 0.00 0.00 47 1011.3
20260501174442 91 82 3.0 11.0 0.00 0.00 0.00 47 1011.5
20260501173936 91 46 1.0 7.0 0.00 0.00 0.00 49 1011.5
20260501173443 91 172 3.0 7.0 0.00 0.00 0.00 47 1011.5
20260501172938 90 161 3.0 9.0 0.00 0.00 0.00 41 1011.5
20260501172442 89 212 1.0 9.0 0.00 0.00 0.00 43 1011.5
20260501171938 90 311 3.0 6.0 0.00 0.00 0.00 44 1011.5
20260501171431 91 281 1.0 5.0 0.00 0.00 0.00 41 1011.6
20260501170942 91 172 2.0 6.0 0.00 0.00 0.00 40 1011.6
20260501170438 90 249 2.0 7.0 0.00 0.00 0.00 41 1011.6
20260501165933 90 213 5.0 7.0 0.00 0.00 0.00 41 1011.7
20260501165438 90 191 2.0 9.0 0.00 0.00 0.00 42 1011.7
20260501164931 90 188 5.0 9.0 0.00 0.00 0.00 42 1011.7
20260501164440 90 180 3.0 6.0 0.00 0.00 0.00 42 1011.8
20260501163935 90 288 3.0 10.0 0.00 0.00 0.00 43 1011.8
20260501163439 89 300 3.0 10.0 0.00 0.00 0.00 42 1011.8
20260501162956 88 98 1.0 10.0 0.00 0.00 0.00 45 1011.7
20260501162442 87 194 1.0 7.0 0.00 0.00 0.00 44 1011.7
20260501161958 87 220 3.0 7.0 0.00 0.00 0.00 47 1011.7
20260501161430 87 179 2.0 7.0 0.00 0.00 0.00 48 1012.0
20260501160944 86 200 3.0 6.0 0.00 0.00 0.00 49 1012.0
20260501160436 86 304 2.0 5.0 0.00 0.00 0.00 51 1012.0
20260501155933 86 236 2.0 6.0 0.00 0.00 0.00 51 1012.2
20260501155442 85 296 1.0 6.0 0.00 0.00 0.00 52 1012.2
20260501153959 84 185 2.0 6.0 0.00 0.00 0.00 53 1011.9
20260501153435 84 321 3.0 6.0 0.00 0.00 0.00 54 1011.9
20260501152945 83 117 2.0 6.0 0.00 0.00 0.00 54 1011.9
20260501152441 83 229 3.0 6.0 0.00 0.00 0.00 52 1011.9
20260501151937 83 290 2.0 4.0 0.00 0.00 0.00 57 1011.9
20260501151438 82 172 2.0 6.0 0.00 0.00 0.00 55 1012.2
20260501150933 82 238 2.0 6.0 0.00 0.00 0.00 55 1012.2
20260501150428 82 233 2.0 6.0 0.00 0.00 0.00 60 1012.2
20260501150004 81 236 3.0 10.0 0.00 0.00 0.00 61 1012.2
20260501145438 81 288 2.0 10.0 0.00 0.00 0.00 63 1012.2
20260501144935 81 234 3.0 4.0 0.00 0.00 0.00 64 1012.2
20260501144450 80 235 1.0 4.0 0.00 0.00 0.00 61 1012.2
20260501143947 80 333 1.0 4.0 0.00 0.00 0.00 66 1012.2
20260501143441 79 305 1.0 4.0 0.00 0.00 0.00 68 1012.2
20260501142452 79 331 2.0 6.0 0.00 0.00 0.00 71 1012.2
20260501141928 78 316 1.0 4.0 0.00 0.00 0.00 73 1012.2
20260501140405 77 264 2.0 5.0 0.00 0.00 0.00 78 1012.3
20260501135912 77 223 1.0 11.0 0.00 0.00 0.00 79 1012.3
20260501134904 76 286 1.0 7.0 0.00 0.00 0.00 82 1012.3
20260501134358 76 285 3.0 7.0 0.00 0.00 0.00 83 1012.3
20260501133907 75 246 2.0 7.0 0.00 0.00 0.00 86 1012.3
20260501133403 75 225 2.0 6.0 0.00 0.00 0.00 87 1012.3